Time;durP1;ratioP1;P1;durP2;ratioP2;P2;SDS_P1;SDS_P2;PMS_P1;PMS_P2;Temp;Humidity;BMP_temperature;BMP_pressure;BME280_temperature;BME280_humidity;BME280_pressure;Samples;Min_cycle;Max_cycle;Signal;HPM_P1;HPM_P2
2022/01/12 00:01:52;;;;;;;3.47;2.03;;;;;;;;;;4529708;28;20033;-58
2022/01/12 00:04:03;;;;;;;2.63;2.07;;;;;;;;;;4528717;28;20022;-58
2022/01/12 00:06:14;;;;;;;3.43;2.00;;;;;;;;;;4529307;28;20034;-58
2022/01/12 00:08:25;;;;;;;3.08;2.20;;;;;;;;;;4532215;28;20033;-58
2022/01/12 00:10:36;;;;;;;3.30;1.95;;;;;;;;;;4529392;28;20053;-58
2022/01/12 00:12:47;;;;;;;3.77;2.00;;;;;;;;;;4527563;28;20040;-58
2022/01/12 00:14:57;;;;;;;3.63;2.23;;;;;;;;;;4519355;28;20053;-60
2022/01/12 00:17:07;;;;;;;3.77;2.80;;;;;;;;;;4531316;28;20656;-58
2022/01/12 00:19:18;;;;;;;4.60;3.10;;;;;;;;;;4518141;28;20037;-58
2022/01/12 00:21:28;;;;;;;4.87;3.07;;;;;;;;;;4530086;28;20485;-57
2022/01/12 00:23:40;;;;;;;4.00;2.50;;;;;;;;;;4528552;28;20091;-58
2022/01/12 00:33:09;;;;;;;4.03;2.60;;;;;;;;;;4537328;28;20044;-58
2022/01/12 00:35:20;;;;;;;3.78;2.42;;;;;;;;;;4536737;28;20065;-58
2022/01/12 00:37:30;;;;;;;3.23;2.57;;;;;;;;;;4529974;28;20605;-58
2022/01/12 00:39:41;;;;;;;2.60;2.17;;;;;;;;;;4530788;28;20615;-58
2022/01/12 00:41:51;;;;;;;2.70;2.07;;;;;;;;;;4536939;28;20033;-58
2022/01/12 00:44:06;;;;;;;3.30;2.20;;;;;;;;;;4519912;28;20153;-58
2022/01/12 00:46:17;;;;;;;2.70;2.00;;;;;;;;;;4527062;28;20781;-57
2022/01/12 00:48:27;;;;;;;2.27;2.07;;;;;;;;;;4520584;28;20033;-58
2022/01/12 00:50:38;;;;;;;3.93;2.47;;;;;;;;;;4529677;28;20037;-58
2022/01/12 00:52:48;;;;;;;4.00;2.90;;;;;;;;;;4526933;28;20076;-58
2022/01/12 00:54:59;;;;;;;5.07;3.27;;;;;;;;;;4527836;28;20112;-58
2022/01/12 00:57:09;;;;;;;4.67;3.10;;;;;;;;;;4528481;28;20099;-58
2022/01/12 00:59:20;;;;;;;4.43;3.00;;;;;;;;;;4529223;28;20050;-57
2022/01/12 01:01:32;;;;;;;4.70;3.00;;;;;;;;;;4524898;28;20087;-58
2022/01/12 01:03:42;;;;;;;3.72;2.60;;;;;;;;;;4535955;28;20037;-58
2022/01/12 01:05:53;;;;;;;3.67;2.28;;;;;;;;;;4531949;28;20029;-58
2022/01/12 01:08:04;;;;;;;2.93;2.20;;;;;;;;;;4529268;28;20685;-58
2022/01/12 01:10:24;;;;;;;3.42;2.47;;;;;;;;;;4507838;28;20037;-58
2022/01/12 01:12:36;;;;;;;3.55;2.13;;;;;;;;;;4527887;28;20036;-58
2022/01/12 01:15:02;;;;;;;3.25;2.10;;;;;;;;;;4528678;28;20692;-58
2022/01/12 01:27:13;;;;;;;3.78;2.20;;;;;;;;;;4520974;28;20543;-58
2022/01/12 01:29:26;;;;;;;2.80;2.00;;;;;;;;;;4520030;28;20029;-58
2022/01/12 01:31:39;;;;;;;3.45;2.30;;;;;;;;;;4511007;28;20860;-58
2022/01/12 01:33:51;;;;;;;3.03;1.85;;;;;;;;;;4526934;28;20631;-58
2022/01/12 01:36:02;;;;;;;2.70;1.90;;;;;;;;;;4529036;28;20053;-58
2022/01/12 01:38:12;;;;;;;3.17;2.10;;;;;;;;;;4527237;28;20060;-58
2022/01/12 01:40:23;;;;;;;2.60;1.80;;;;;;;;;;4528573;28;21079;-58
2022/01/12 01:55:14;;;;;;;3.88;2.33;;;;;;;;;;4527605;28;20088;-58
2022/01/12 01:57:26;;;;;;;4.28;2.13;;;;;;;;;;4509558;28;20773;-58
2022/01/12 01:59:37;;;;;;;2.67;2.03;;;;;;;;;;4510713;28;20041;-58
2022/01/12 02:01:47;;;;;;;2.10;1.80;;;;;;;;;;4528312;28;20029;-58
2022/01/12 02:04:02;;;;;;;2.80;1.60;;;;;;;;;;4498309;28;20066;-58
2022/01/12 02:06:12;;;;;;;3.33;1.80;;;;;;;;;;4527898;28;20032;-58
2022/01/12 02:08:23;;;;;;;2.40;1.67;;;;;;;;;;4536106;28;20052;-58
2022/01/12 02:10:58;;;;;;;3.53;1.63;;;;;;;;;;4518361;28;20119;-58
2022/01/12 02:13:10;;;;;;;2.83;1.67;;;;;;;;;;4542927;28;20104;-58
2022/01/12 02:15:23;;;;;;;2.70;1.90;;;;;;;;;;4526695;28;20072;-58
2022/01/12 02:17:39;;;;;;;2.30;1.50;;;;;;;;;;4525481;28;20108;-58
2022/01/12 02:20:14;;;;;;;2.05;1.30;;;;;;;;;;4525656;28;20037;-58
2022/01/12 02:39:56;;;;;;;2.40;1.60;;;;;;;;;;4526446;28;20030;-58
2022/01/12 02:42:07;;;;;;;2.13;1.55;;;;;;;;;;4527641;28;20041;-58
2022/01/12 02:54:15;;;;;;;3.33;1.50;;;;;;;;;;4515055;28;20041;-58
2022/01/12 02:56:29;;;;;;;2.07;1.60;;;;;;;;;;4527513;28;20075;-58
2022/01/12 02:58:42;;;;;;;2.55;1.50;;;;;;;;;;4524375;28;20045;-58
2022/01/12 03:03:22;;;;;;;2.53;1.58;;;;;;;;;;4527095;28;20148;-58
2022/01/12 03:05:45;;;;;;;2.33;1.45;;;;;;;;;;4542807;28;20084;-58
2022/01/12 03:08:01;;;;;;;2.75;1.42;;;;;;;;;;4541344;28;20029;-58
2022/01/12 03:10:13;;;;;;;2.60;1.65;;;;;;;;;;4528377;28;20037;-58
2022/01/12 03:12:23;;;;;;;3.65;1.42;;;;;;;;;;4518169;28;21562;-58
2022/01/12 03:14:34;;;;;;;3.33;1.85;;;;;;;;;;4527590;28;20037;-58
2022/01/12 03:16:44;;;;;;;2.07;1.50;;;;;;;;;;4527829;28;20529;-58
2022/01/12 03:19:03;;;;;;;1.75;1.50;;;;;;;;;;4524764;28;20036;-58
2022/01/12 03:21:18;;;;;;;2.15;1.45;;;;;;;;;;4511321;28;20034;-58
2022/01/12 03:23:29;;;;;;;2.60;1.60;;;;;;;;;;4511379;28;20041;-58
2022/01/12 03:25:39;;;;;;;1.90;1.40;;;;;;;;;;4510334;28;20033;-58
2022/01/12 03:27:51;;;;;;;1.87;1.50;;;;;;;;;;4528332;28;20748;-59
2022/01/12 03:30:02;;;;;;;1.50;1.20;;;;;;;;;;4528389;28;20107;-59
2022/01/12 03:32:12;;;;;;;1.63;1.30;;;;;;;;;;4526017;28;20041;-58
2022/01/12 03:34:27;;;;;;;2.37;1.60;;;;;;;;;;4525933;28;20033;-58
2022/01/12 03:37:05;;;;;;;1.95;1.52;;;;;;;;;;4514151;28;20129;-58
2022/01/12 03:39:14;;;;;;;2.55;1.70;;;;;;;;;;4534965;28;20426;-58
2022/01/12 03:41:29;;;;;;;2.47;1.50;;;;;;;;;;4530924;28;20851;-58
2022/01/12 03:43:40;;;;;;;2.83;1.50;;;;;;;;;;4511222;28;20034;-59
2022/01/12 03:45:50;;;;;;;1.75;1.40;;;;;;;;;;4535138;28;20041;-58
2022/01/12 03:48:02;;;;;;;2.03;1.45;;;;;;;;;;4530107;28;20759;-58
2022/01/12 03:50:13;;;;;;;2.13;1.63;;;;;;;;;;4530564;28;20115;-58
2022/01/12 03:52:24;;;;;;;1.90;1.20;;;;;;;;;;4530384;28;20129;-58
2022/01/12 03:54:34;;;;;;;2.93;1.47;;;;;;;;;;4527552;28;20045;-58
2022/01/12 03:56:45;;;;;;;7.20;4.60;;;;;;;;;;4527726;28;20042;-58
2022/01/12 03:58:55;;;;;;;6.63;4.57;;;;;;;;;;4528380;28;20397;-58
2022/01/12 04:01:06;;;;;;;5.73;3.83;;;;;;;;;;4513025;28;20042;-58
2022/01/12 04:03:17;;;;;;;4.77;3.70;;;;;;;;;;4529656;28;20034;-58
2022/01/12 04:10:16;;;;;;;2.95;1.70;;;;;;;;;;4532695;28;20030;-58
2022/01/12 04:12:28;;;;;;;1.97;1.50;;;;;;;;;;4537344;28;20393;-58
2022/01/12 04:14:39;;;;;;;1.88;1.40;;;;;;;;;;4527197;28;20064;-58
2022/01/12 04:16:49;;;;;;;1.90;1.50;;;;;;;;;;4513891;28;20050;-58
2022/01/12 04:19:00;;;;;;;2.50;1.40;;;;;;;;;;4528888;28;20106;-58
2022/01/12 04:21:12;;;;;;;2.03;1.50;;;;;;;;;;4528085;28;20033;-58
2022/01/12 04:23:23;;;;;;;2.50;1.63;;;;;;;;;;4527983;28;20036;-58
2022/01/12 04:25:34;;;;;;;1.55;1.10;;;;;;;;;;4530665;28;20036;-58
2022/01/12 04:27:44;;;;;;;1.70;1.20;;;;;;;;;;4520569;28;20041;-58
2022/01/12 04:29:55;;;;;;;2.83;1.00;;;;;;;;;;4536845;28;20029;-58
2022/01/12 04:32:06;;;;;;;1.43;1.30;;;;;;;;;;4528067;28;20472;-58
2022/01/12 04:34:16;;;;;;;1.70;1.20;;;;;;;;;;4529108;28;20029;-57
2022/01/12 04:36:27;;;;;;;1.50;1.37;;;;;;;;;;4529335;28;20776;-58
2022/01/12 04:38:39;;;;;;;2.33;1.60;;;;;;;;;;4513655;28;20049;-59
2022/01/12 04:40:50;;;;;;;1.70;1.27;;;;;;;;;;4528318;28;21354;-58
2022/01/12 04:43:00;;;;;;;2.30;1.40;;;;;;;;;;4527388;28;20029;-58
2022/01/12 04:50:06;;;;;;;2.10;1.50;;;;;;;;;;4525599;28;21446;-58
2022/01/12 04:52:16;;;;;;;1.33;1.10;;;;;;;;;;4526794;28;20042;-59
2022/01/12 04:54:27;;;;;;;2.57;1.47;;;;;;;;;;4537240;28;20321;-59
2022/01/12 04:56:38;;;;;;;3.45;1.40;;;;;;;;;;4533517;28;20095;-58
2022/01/12 04:58:49;;;;;;;2.47;1.50;;;;;;;;;;4529557;28;21235;-58
2022/01/12 05:01:08;;;;;;;2.55;1.67;;;;;;;;;;4530727;28;20038;-58
2022/01/12 05:06:40;;;;;;;2.92;1.83;;;;;;;;;;4512585;28;20040;-58
2022/01/12 05:09:09;;;;;;;;;;;;;;;;;;4511892;28;20045;-59
2022/01/12 05:13:53;;;;;;;2.65;1.40;;;;;;;;;;4526524;28;20037;-58
2022/01/12 05:16:04;;;;;;;1.88;1.30;;;;;;;;;;4529225;28;20041;-58
2022/01/12 05:18:15;;;;;;;2.17;1.30;;;;;;;;;;4531081;28;20087;-57
2022/01/12 05:20:26;;;;;;;2.20;1.27;;;;;;;;;;4511489;28;20089;-58
2022/01/12 05:22:36;;;;;;;2.27;1.43;;;;;;;;;;4528005;28;20041;-58
2022/01/12 05:24:47;;;;;;;2.30;1.43;;;;;;;;;;4536457;28;20029;-57
2022/01/12 05:26:57;;;;;;;2.23;1.30;;;;;;;;;;4527915;28;20060;-57
2022/01/12 05:29:08;;;;;;;1.67;1.30;;;;;;;;;;4519838;28;20040;-57
2022/01/12 05:31:19;;;;;;;2.37;1.60;;;;;;;;;;4509338;28;20030;-57
2022/01/12 05:33:30;;;;;;;2.30;1.40;;;;;;;;;;4512693;28;20422;-58
2022/01/12 05:35:42;;;;;;;2.28;1.50;;;;;;;;;;4536734;28;20033;-57
2022/01/12 05:37:53;;;;;;;2.45;1.60;;;;;;;;;;4528702;28;20878;-58
2022/01/12 05:40:05;;;;;;;3.20;1.50;;;;;;;;;;4529212;28;20083;-57
2022/01/12 05:42:17;;;;;;;2.97;1.65;;;;;;;;;;4520163;28;20123;-57
2022/01/12 05:44:28;;;;;;;2.72;1.70;;;;;;;;;;4529930;28;20044;-57
2022/01/12 05:46:42;;;;;;;2.35;1.33;;;;;;;;;;4529740;28;20037;-57
2022/01/12 05:51:30;;;;;;;3.03;2.10;;;;;;;;;;4536348;28;20150;-57
2022/01/12 05:53:40;;;;;;;2.23;1.73;;;;;;;;;;4529642;28;22465;-57
2022/01/12 05:55:51;;;;;;;2.60;1.57;;;;;;;;;;4510826;28;20580;-57
2022/01/12 05:58:01;;;;;;;2.30;1.50;;;;;;;;;;4526890;28;20093;-58
2022/01/12 06:00:14;;;;;;;2.27;1.60;;;;;;;;;;4529547;28;20025;-58
2022/01/12 06:02:33;;;;;;;;;;;;;;;;;;4530198;28;20056;-57
2022/01/12 06:04:44;;;;;;;2.50;2.00;;;;;;;;;;4528043;28;19924;-57
2022/01/12 06:06:56;;;;;;;2.33;1.57;;;;;;;;;;4528127;28;20040;-57
2022/01/12 06:09:06;;;;;;;2.47;1.67;;;;;;;;;;4511843;28;20034;-58
2022/01/12 06:11:17;;;;;;;2.20;1.77;;;;;;;;;;4535647;28;20033;-57
2022/01/12 06:13:29;;;;;;;3.72;2.60;;;;;;;;;;4528242;28;20105;-57
2022/01/12 06:15:40;;;;;;;3.00;2.20;;;;;;;;;;4518443;28;20610;-58
2022/01/12 06:17:50;;;;;;;3.63;2.50;;;;;;;;;;4530789;28;20508;-57
2022/01/12 06:20:03;;;;;;;2.53;2.00;;;;;;;;;;4527746;28;20057;-57
2022/01/12 06:22:36;;;;;;;3.17;1.90;;;;;;;;;;4508875;28;20040;-58
2022/01/12 06:24:47;;;;;;;2.80;1.90;;;;;;;;;;4527143;28;20036;-57
2022/01/12 06:26:58;;;;;;;2.97;1.80;;;;;;;;;;4512371;28;21138;-57
2022/01/12 06:31:26;;;;;;;2.65;1.70;;;;;;;;;;4534746;28;20037;-57
2022/01/12 06:33:47;;;;;;;3.35;1.88;;;;;;;;;;4510999;28;20119;-57
2022/01/12 06:35:57;;;;;;;3.05;1.80;;;;;;;;;;4527374;28;20096;-57
2022/01/12 06:38:08;;;;;;;2.20;1.50;;;;;;;;;;4525363;28;20052;-57
2022/01/12 06:40:19;;;;;;;2.95;1.75;;;;;;;;;;4518656;28;20044;-58
2022/01/12 06:42:30;;;;;;;3.97;1.60;;;;;;;;;;4529057;28;20587;-57
2022/01/12 06:44:41;;;;;;;2.13;1.50;;;;;;;;;;4529164;28;20033;-57
2022/01/12 06:46:56;;;;;;;1.93;1.50;;;;;;;;;;4523592;28;20033;-57
2022/01/12 06:49:07;;;;;;;2.40;1.65;;;;;;;;;;4509451;28;20831;-57
2022/01/12 06:51:17;;;;;;;2.40;1.53;;;;;;;;;;4527745;28;20045;-57
2022/01/12 06:53:28;;;;;;;2.20;1.77;;;;;;;;;;4528538;28;20402;-57
2022/01/12 06:55:38;;;;;;;2.13;1.30;;;;;;;;;;4526880;28;20091;-57
2022/01/12 06:57:49;;;;;;;2.27;1.63;;;;;;;;;;4529393;28;20048;-57
2022/01/12 07:00:00;;;;;;;2.23;1.57;;;;;;;;;;4535239;28;20033;-57
2022/01/12 07:02:11;;;;;;;3.00;1.60;;;;;;;;;;4527785;28;20879;-57
2022/01/12 07:04:25;;;;;;;2.30;1.60;;;;;;;;;;4508871;28;20042;-57
2022/01/12 07:06:35;;;;;;;2.45;1.70;;;;;;;;;;4535537;28;20597;-57
2022/01/12 07:08:46;;;;;;;3.40;1.90;;;;;;;;;;4535283;28;20122;-57
2022/01/12 07:11:18;;;;;;;2.78;1.75;;;;;;;;;;4522417;28;20041;-57
2022/01/12 07:13:28;;;;;;;2.40;1.70;;;;;;;;;;4535303;28;20084;-57
2022/01/12 07:15:42;;;;;;;2.20;1.60;;;;;;;;;;4526010;28;20264;-57
2022/01/12 07:17:54;;;;;;;2.50;1.50;;;;;;;;;;4537938;28;20037;-57
2022/01/12 07:20:05;;;;;;;2.60;1.47;;;;;;;;;;4520860;28;20034;-57
2022/01/12 07:22:20;;;;;;;2.80;1.80;;;;;;;;;;4530697;28;20567;-58
2022/01/12 07:24:31;;;;;;;4.00;1.90;;;;;;;;;;4531074;28;20376;-57
2022/01/12 07:26:41;;;;;;;2.93;1.73;;;;;;;;;;4530397;28;20136;-57
2022/01/12 07:28:53;;;;;;;2.67;1.70;;;;;;;;;;4530076;28;20542;-57
2022/01/12 07:31:04;;;;;;;2.25;1.58;;;;;;;;;;4531044;28;20032;-57
2022/01/12 07:33:15;;;;;;;1.87;1.47;;;;;;;;;;4526774;28;20795;-58
2022/01/12 07:35:25;;;;;;;2.60;1.50;;;;;;;;;;4526449;28;21384;-57
2022/01/12 07:37:36;;;;;;;2.73;1.80;;;;;;;;;;4529240;28;20106;-57
2022/01/12 07:39:46;;;;;;;3.03;1.53;;;;;;;;;;4530916;28;20045;-57
2022/01/12 07:41:56;;;;;;;2.70;1.80;;;;;;;;;;4529036;28;20033;-57
2022/01/12 07:44:11;;;;;;;2.33;1.52;;;;;;;;;;4532533;28;20041;-57
2022/01/12 07:46:22;;;;;;;3.00;1.60;;;;;;;;;;4528810;28;20041;-57
2022/01/12 07:48:32;;;;;;;3.13;1.53;;;;;;;;;;4527661;28;20033;-57
2022/01/12 07:50:44;;;;;;;3.03;1.53;;;;;;;;;;4527751;28;20029;-58
2022/01/12 07:52:54;;;;;;;2.28;1.58;;;;;;;;;;4526422;28;20152;-58
2022/01/12 07:55:07;;;;;;;3.00;1.40;;;;;;;;;;4530551;28;20634;-58
2022/01/12 07:57:18;;;;;;;2.55;1.50;;;;;;;;;;4529167;28;20055;-58
2022/01/12 07:59:28;;;;;;;2.63;1.65;;;;;;;;;;4528568;28;20032;-58
2022/01/12 08:01:39;;;;;;;3.63;1.70;;;;;;;;;;4527700;28;20068;-57
2022/01/12 08:03:50;;;;;;;2.60;1.60;;;;;;;;;;4528684;28;20110;-58
2022/01/12 08:06:01;;;;;;;2.47;1.75;;;;;;;;;;4527651;28;20573;-57
2022/01/12 08:08:12;;;;;;;2.60;1.57;;;;;;;;;;4529531;28;20040;-57
2022/01/12 08:10:22;;;;;;;;;;;;;;;;;;4529375;28;20049;-58
2022/01/12 08:12:33;;;;;;;2.13;1.38;;;;;;;;;;4530907;28;19913;-57
2022/01/12 08:14:44;;;;;;;1.90;1.50;;;;;;;;;;4529112;28;20128;-57
2022/01/12 08:16:54;;;;;;;2.00;1.43;;;;;;;;;;4529342;28;20264;-58
2022/01/12 08:19:05;;;;;;;2.57;1.60;;;;;;;;;;4526116;28;20037;-57
2022/01/12 08:21:15;;;;;;;2.17;1.53;;;;;;;;;;4528937;28;20145;-57
2022/01/12 08:23:26;;;;;;;2.27;1.57;;;;;;;;;;4529095;28;20104;-57
2022/01/12 08:25:40;;;;;;;2.47;1.60;;;;;;;;;;4528091;28;20033;-57
2022/01/12 08:27:51;;;;;;;2.30;1.55;;;;;;;;;;4527929;28;20143;-57
2022/01/12 08:30:03;;;;;;;2.72;1.60;;;;;;;;;;4528597;28;20025;-57
2022/01/12 08:32:13;;;;;;;3.80;1.80;;;;;;;;;;4527499;28;20044;-57
2022/01/12 08:34:24;;;;;;;2.40;1.70;;;;;;;;;;4527318;28;20034;-57
2022/01/12 08:36:34;;;;;;;3.60;1.70;;;;;;;;;;4529068;28;20111;-57
2022/01/12 08:38:45;;;;;;;3.43;1.90;;;;;;;;;;4527781;28;20486;-57
2022/01/12 08:40:55;;;;;;;2.43;1.90;;;;;;;;;;4528809;28;20040;-57
2022/01/12 08:43:06;;;;;;;3.10;1.93;;;;;;;;;;4527006;28;20053;-57
2022/01/12 08:45:17;;;;;;;4.33;2.30;;;;;;;;;;4528314;28;20882;-57
2022/01/12 08:47:27;;;;;;;3.65;2.15;;;;;;;;;;4528006;28;20082;-57
2022/01/12 08:49:37;;;;;;;6.53;4.10;;;;;;;;;;4526537;28;20048;-57
2022/01/12 08:51:48;;;;;;;8.60;5.30;;;;;;;;;;4527394;28;20557;-57
2022/01/12 08:53:59;;;;;;;5.03;3.20;;;;;;;;;;4526030;28;20061;-57
2022/01/12 08:56:09;;;;;;;4.37;2.70;;;;;;;;;;4535192;28;20141;-57
2022/01/12 08:58:20;;;;;;;4.17;2.70;;;;;;;;;;4528251;28;20026;-57
2022/01/12 09:00:30;;;;;;;3.17;2.10;;;;;;;;;;4527449;28;20032;-57
2022/01/12 09:02:41;;;;;;;3.80;2.27;;;;;;;;;;4542454;28;20059;-58
2022/01/12 09:04:52;;;;;;;4.03;2.30;;;;;;;;;;4527150;28;20044;-57
2022/01/12 09:07:02;;;;;;;3.50;2.50;;;;;;;;;;4525013;28;20033;-57
2022/01/12 09:09:13;;;;;;;2.87;1.93;;;;;;;;;;4524279;28;20037;-57
2022/01/12 09:11:23;;;;;;;3.23;2.20;;;;;;;;;;4527666;28;20033;-57
2022/01/12 09:13:34;;;;;;;2.63;2.10;;;;;;;;;;4526133;28;20504;-57
2022/01/12 09:15:45;;;;;;;2.40;1.90;;;;;;;;;;4525999;28;20144;-58
2022/01/12 09:17:56;;;;;;;2.00;1.60;;;;;;;;;;4523566;28;20049;-57
2022/01/12 09:20:08;;;;;;;;;;;;;;;;;;4529342;28;20075;-57
2022/01/12 09:22:18;;;;;;;2.53;1.50;;;;;;;;;;4532885;28;19917;-58
2022/01/12 09:24:29;;;;;;;2.57;1.70;;;;;;;;;;4526853;28;20073;-57
2022/01/12 09:26:39;;;;;;;2.63;1.77;;;;;;;;;;4526360;28;20080;-57
2022/01/12 09:28:50;;;;;;;2.97;1.80;;;;;;;;;;4526411;28;20057;-57
2022/01/12 09:31:00;;;;;;;2.70;2.00;;;;;;;;;;4527368;28;20039;-57
2022/01/12 09:33:11;;;;;;;4.43;2.60;;;;;;;;;;4527029;28;20503;-57
2022/01/12 09:35:21;;;;;;;4.27;2.57;;;;;;;;;;4512573;28;20041;-58
2022/01/12 09:37:32;;;;;;;5.67;3.40;;;;;;;;;;4526785;28;20136;-58
2022/01/12 09:39:42;;;;;;;5.77;3.70;;;;;;;;;;4525753;28;20031;-58
2022/01/12 09:41:53;;;;;;;6.60;3.77;;;;;;;;;;4526973;28;20553;-58
2022/01/12 09:44:04;;;;;;;6.40;4.03;;;;;;;;;;4524470;28;22098;-58
2022/01/12 09:46:14;;;;;;;4.22;2.90;;;;;;;;;;4528117;28;20048;-58
2022/01/12 09:48:26;;;;;;;3.63;2.60;;;;;;;;;;4526060;28;20040;-58
2022/01/12 09:50:37;;;;;;;3.38;2.22;;;;;;;;;;4527192;28;20044;-58
2022/01/12 09:52:48;;;;;;;3.22;2.13;;;;;;;;;;4534912;28;20037;-58
2022/01/12 09:54:58;;;;;;;3.53;2.50;;;;;;;;;;4525301;28;20072;-58
2022/01/12 09:57:09;;;;;;;2.93;2.50;;;;;;;;;;4527812;28;21152;-59
2022/01/12 09:59:21;;;;;;;4.10;2.40;;;;;;;;;;4523906;28;20033;-58
2022/01/12 10:01:39;;;;;;;5.35;2.78;;;;;;;;;;4523975;28;20592;-58
2022/01/12 10:03:49;;;;;;;4.25;2.65;;;;;;;;;;4525902;28;20064;-59
2022/01/12 10:06:11;;;;;;;4.70;3.17;;;;;;;;;;4525902;28;20116;-60
2022/01/12 10:08:22;;;;;;;;;;;;;;;;;;4527389;28;20053;-59
2022/01/12 10:10:32;;;;;;;4.40;3.00;;;;;;;;;;4525383;28;20656;-59
2022/01/12 10:12:56;;;;;;;4.93;2.90;;;;;;;;;;4525931;28;20052;-59
2022/01/12 10:15:10;;;;;;;5.50;3.08;;;;;;;;;;4525979;28;20512;-59
2022/01/12 10:17:31;;;;;;;6.25;3.20;;;;;;;;;;4540961;28;20978;-59
2022/01/12 10:19:42;;;;;;;7.10;3.03;;;;;;;;;;4527743;28;20191;-59
2022/01/12 10:21:53;;;;;;;5.07;2.93;;;;;;;;;;4524490;28;20084;-59
2022/01/12 10:24:10;;;;;;;7.10;3.40;;;;;;;;;;4525204;28;21042;-59
2022/01/12 10:26:42;;;;;;;6.32;3.47;;;;;;;;;;4526678;28;20041;-58
2022/01/12 10:29:01;;;;;;;7.00;3.65;;;;;;;;;;4529193;28;20029;-59
2022/01/12 10:31:15;;;;;;;5.70;3.10;;;;;;;;;;4526017;28;20076;-59
2022/01/12 10:33:28;;;;;;;5.63;3.25;;;;;;;;;;4526765;28;20832;-59
2022/01/12 10:35:40;;;;;;;5.95;3.75;;;;;;;;;;4535169;28;20523;-58
2022/01/12 10:37:51;;;;;;;6.22;3.45;;;;;;;;;;4524680;28;20049;-59
2022/01/12 10:40:02;;;;;;;6.97;3.63;;;;;;;;;;4526233;28;20039;-59
2022/01/12 10:42:14;;;;;;;9.32;4.20;;;;;;;;;;4526754;28;20792;-59
2022/01/12 10:44:31;;;;;;;7.35;3.67;;;;;;;;;;4528747;28;20044;-59
2022/01/12 10:46:41;;;;;;;7.05;3.90;;;;;;;;;;4511629;28;20191;-59
2022/01/12 10:48:57;;;;;;;6.53;4.00;;;;;;;;;;4509354;28;20037;-59
2022/01/12 10:51:07;;;;;;;8.25;4.25;;;;;;;;;;4528078;28;20040;-59
2022/01/12 10:53:34;;;;;;;6.77;3.90;;;;;;;;;;4531631;28;20032;-59
2022/01/12 10:55:45;;;;;;;6.78;3.83;;;;;;;;;;4529946;28;21378;-59
2022/01/12 10:57:58;;;;;;;5.40;3.47;;;;;;;;;;4527266;28;20304;-58
2022/01/12 11:00:18;;;;;;;8.60;4.45;;;;;;;;;;4529577;28;20828;-59
2022/01/12 11:02:29;;;;;;;8.35;4.45;;;;;;;;;;4528378;28;20036;-59
2022/01/12 11:04:42;;;;;;;7.07;4.15;;;;;;;;;;4530468;28;20041;-59
2022/01/12 11:06:53;;;;;;;6.53;3.70;;;;;;;;;;4529283;28;20410;-59
2022/01/12 11:09:04;;;;;;;7.80;4.15;;;;;;;;;;4528427;28;20033;-59
2022/01/12 11:11:19;;;;;;;8.85;4.28;;;;;;;;;;4528772;28;20041;-59
2022/01/12 11:13:31;;;;;;;9.18;4.53;;;;;;;;;;4528181;28;20047;-59
2022/01/12 11:15:42;;;;;;;8.02;4.38;;;;;;;;;;4530747;28;20037;-59
2022/01/12 11:17:53;;;;;;;7.68;4.50;;;;;;;;;;4531455;28;20630;-59
2022/01/12 11:20:09;;;;;;;9.80;5.13;;;;;;;;;;4530637;28;20034;-59
2022/01/12 11:22:56;;;;;;;8.98;4.30;;;;;;;;;;4529657;28;20056;-59
2022/01/12 11:25:19;;;;;;;8.90;4.50;;;;;;;;;;4529842;28;20025;-59
2022/01/12 11:27:29;;;;;;;8.13;4.80;;;;;;;;;;4529552;28;20864;-59
2022/01/12 11:29:40;;;;;;;8.90;4.73;;;;;;;;;;4532011;28;20029;-59
2022/01/12 11:31:50;;;;;;;7.80;4.80;;;;;;;;;;4526527;28;20029;-59
2022/01/12 11:34:01;;;;;;;9.03;5.10;;;;;;;;;;4527566;28;20041;-59
2022/01/12 11:36:11;;;;;;;9.57;5.37;;;;;;;;;;4528499;28;20045;-59
2022/01/12 11:38:28;;;;;;;9.23;5.20;;;;;;;;;;4528834;28;20034;-59
2022/01/12 11:40:42;;;;;;;10.70;5.85;;;;;;;;;;4530728;28;20375;-59
2022/01/12 11:42:54;;;;;;;10.55;5.75;;;;;;;;;;4526764;28;20038;-59
2022/01/12 11:45:04;;;;;;;9.15;5.40;;;;;;;;;;4528459;28;20025;-59
2022/01/12 11:47:15;;;;;;;10.67;6.00;;;;;;;;;;4526257;28;20021;-59
2022/01/12 11:49:29;;;;;;;11.10;6.23;;;;;;;;;;4528626;28;20037;-59
2022/01/12 11:51:44;;;;;;;9.90;5.78;;;;;;;;;;4519869;28;20048;-60
2022/01/12 11:53:55;;;;;;;11.65;6.40;;;;;;;;;;4528012;28;20120;-59
2022/01/12 11:56:12;;;;;;;11.45;6.75;;;;;;;;;;4527807;28;20509;-59
2022/01/12 11:58:23;;;;;;;13.20;7.20;;;;;;;;;;4513197;28;20108;-59
2022/01/12 12:00:36;;;;;;;11.43;6.60;;;;;;;;;;4525924;28;20108;-59
2022/01/12 12:02:49;;;;;;;11.23;6.38;;;;;;;;;;4527428;28;20636;-59
2022/01/12 12:05:06;;;;;;;11.05;6.53;;;;;;;;;;4527769;28;20048;-59
2022/01/12 12:07:17;;;;;;;11.50;6.25;;;;;;;;;;4527469;28;20032;-59
2022/01/12 12:09:38;;;;;;;11.63;6.60;;;;;;;;;;4528528;28;20064;-59
2022/01/12 12:11:51;;;;;;;13.23;7.22;;;;;;;;;;4530452;28;20041;-59
2022/01/12 12:14:07;;;;;;;13.45;7.32;;;;;;;;;;4526215;28;20028;-59
2022/01/12 12:16:17;;;;;;;12.73;6.85;;;;;;;;;;4528245;28;20041;-60
2022/01/12 12:18:28;;;;;;;11.57;6.70;;;;;;;;;;4527543;28;32842;-59
2022/01/12 12:20:39;;;;;;;12.03;7.00;;;;;;;;;;4537129;28;20041;-59
2022/01/12 12:22:50;;;;;;;11.23;7.27;;;;;;;;;;4528308;28;20112;-59
2022/01/12 12:25:14;;;;;;;13.32;7.43;;;;;;;;;;4529764;28;20036;-59
2022/01/12 12:27:27;;;;;;;14.30;7.88;;;;;;;;;;4527893;28;20025;-59
2022/01/12 12:29:38;;;;;;;12.93;7.80;;;;;;;;;;4529569;28;20037;-59
2022/01/12 12:31:48;;;;;;;12.13;4.40;;;;;;;;;;4528769;28;20552;-59
2022/01/12 12:34:01;;;;;;;13.23;8.37;;;;;;;;;;4528671;28;20045;-59
2022/01/12 12:36:14;;;;;;;10.50;4.40;;;;;;;;;;4542465;28;20032;-58
2022/01/12 12:38:24;;;;;;;12.98;4.70;;;;;;;;;;4527236;28;20047;-59
2022/01/12 12:40:38;;;;;;;13.00;4.50;;;;;;;;;;4524810;28;20115;-59
2022/01/12 12:43:14;;;;;;;12.90;4.03;;;;;;;;;;4533180;28;20040;-58
2022/01/12 12:45:39;;;;;;;10.82;6.25;;;;;;;;;;4529347;28;20039;-59
2022/01/12 12:47:50;;;;;;;14.20;8.13;;;;;;;;;;4529798;28;20128;-59
2022/01/12 12:50:08;;;;;;;12.27;7.53;;;;;;;;;;4527737;28;20036;-59
2022/01/12 12:52:38;;;;;;;12.52;7.60;;;;;;;;;;4536968;28;20037;-59
2022/01/12 12:54:48;;;;;;;13.02;7.53;;;;;;;;;;4528131;28;20029;-59
2022/01/12 12:57:10;;;;;;;14.17;8.40;;;;;;;;;;4527887;28;20489;-59
2022/01/12 12:59:20;;;;;;;;;;;;;;;;;;4529137;28;20572;-59
2022/01/12 13:01:31;;;;;;;13.55;8.35;;;;;;;;;;4526657;28;19916;-59
2022/01/12 13:03:50;;;;;;;11.60;7.32;;;;;;;;;;4527287;28;20622;-59
2022/01/12 13:06:01;;;;;;;12.52;7.45;;;;;;;;;;4527395;28;20041;-60
2022/01/12 13:08:12;;;;;;;12.00;7.50;;;;;;;;;;4536574;28;20443;-59
2022/01/12 13:10:25;;;;;;;11.55;7.40;;;;;;;;;;4526836;28;20041;-59
2022/01/12 13:12:37;;;;;;;12.93;8.40;;;;;;;;;;4526971;28;20060;-59
2022/01/12 13:14:48;;;;;;;11.88;7.63;;;;;;;;;;4525809;28;20036;-59
2022/01/12 13:16:58;;;;;;;13.23;7.87;;;;;;;;;;4527109;28;20052;-59
2022/01/12 13:19:21;;;;;;;13.00;8.50;;;;;;;;;;4527715;28;20131;-59
2022/01/12 13:21:34;;;;;;;12.48;7.40;;;;;;;;;;4526958;28;20549;-59
2022/01/12 13:23:47;;;;;;;12.52;7.97;;;;;;;;;;4526792;28;20585;-59
2022/01/12 13:26:01;;;;;;;13.40;7.97;;;;;;;;;;4526840;28;20029;-59
2022/01/12 13:28:11;;;;;;;12.52;8.30;;;;;;;;;;4521356;28;20072;-59
2022/01/12 13:30:31;;;;;;;13.63;8.17;;;;;;;;;;4524709;28;20534;-59
2022/01/12 13:32:50;;;;;;;13.25;8.13;;;;;;;;;;4530368;28;20320;-59
2022/01/12 13:35:05;;;;;;;13.45;8.32;;;;;;;;;;4526033;28;20045;-59
2022/01/12 13:37:15;;;;;;;12.38;7.63;;;;;;;;;;4525882;28;20052;-59
2022/01/12 13:39:26;;;;;;;12.23;8.07;;;;;;;;;;4525805;28;20063;-59
2022/01/12 13:41:46;;;;;;;12.97;8.73;;;;;;;;;;4526198;28;20470;-59
2022/01/12 13:43:59;;;;;;;11.90;8.48;;;;;;;;;;4527138;28;20032;-59
2022/01/12 13:46:14;;;;;;;12.98;8.23;;;;;;;;;;4523832;28;20022;-59
2022/01/12 13:48:30;;;;;;;14.10;8.82;;;;;;;;;;4511971;28;20038;-59
2022/01/12 13:50:44;;;;;;;13.85;8.98;;;;;;;;;;4526576;28;20033;-59
2022/01/12 13:52:55;;;;;;;13.07;8.52;;;;;;;;;;4525222;28;20568;-60
2022/01/12 13:55:10;;;;;;;12.90;8.60;;;;;;;;;;4526399;28;20085;-59
2022/01/12 13:57:23;;;;;;;13.52;8.52;;;;;;;;;;4523646;28;20330;-59
2022/01/12 13:59:51;;;;;;;15.27;9.52;;;;;;;;;;4526740;28;20585;-59
2022/01/12 14:02:11;;;;;;;12.93;8.82;;;;;;;;;;4524756;28;21343;-59
2022/01/12 14:04:40;;;;;;;14.05;8.63;;;;;;;;;;4525503;28;20041;-59
2022/01/12 14:06:53;;;;;;;13.88;8.45;;;;;;;;;;4525488;28;20123;-59
2022/01/12 14:09:10;;;;;;;13.55;8.65;;;;;;;;;;4527931;28;20032;-59
2022/01/12 14:11:21;;;;;;;14.25;8.70;;;;;;;;;;4524573;28;20037;-59
2022/01/12 14:13:32;;;;;;;;;;;;;;;;;;4526999;28;20513;-59
2022/01/12 14:15:43;;;;;;;13.35;8.80;;;;;;;;;;4524336;28;20364;-59
2022/01/12 14:17:54;;;;;;;13.35;8.77;;;;;;;;;;4525791;28;20033;-59
2022/01/12 14:20:07;;;;;;;12.70;8.60;;;;;;;;;;4526352;28;20037;-61
2022/01/12 14:22:17;;;;;;;14.80;9.30;;;;;;;;;;4525502;28;20034;-59
2022/01/12 14:24:27;;;;;;;18.07;11.27;;;;;;;;;;4525445;28;20044;-59
2022/01/12 14:26:40;;;;;;;18.57;11.53;;;;;;;;;;4524766;28;20044;-60
2022/01/12 14:28:51;;;;;;;17.13;10.30;;;;;;;;;;4524664;28;20037;-60
2022/01/12 14:31:02;;;;;;;13.98;8.45;;;;;;;;;;4525604;28;20586;-59
2022/01/12 14:33:13;;;;;;;13.50;8.32;;;;;;;;;;4524237;28;20276;-59
2022/01/12 14:35:25;;;;;;;13.07;8.45;;;;;;;;;;4526668;28;20065;-59
2022/01/12 14:37:36;;;;;;;13.35;8.20;;;;;;;;;;4524732;28;20042;-59